sensor_id;sensor_type;location;lat;lon;timestamp;P1;durP1;ratioP1;P2;durP2;ratioP2
1174;SDS011;576;48.418;10.074;2023-02-28T00:01:28;2.33;;;1.30;;
1174;SDS011;576;48.418;10.074;2023-02-28T00:03:57;1.23;;;1.13;;
1174;SDS011;576;48.418;10.074;2023-02-28T00:06:26;1.60;;;1.50;;
1174;SDS011;576;48.418;10.074;2023-02-28T00:08:54;1.43;;;1.33;;
1174;SDS011;576;48.418;10.074;2023-02-28T00:11:22;1.77;;;1.67;;
1174;SDS011;576;48.418;10.074;2023-02-28T00:13:52;1.30;;;1.10;;
1174;SDS011;576;48.418;10.074;2023-02-28T00:16:21;1.50;;;1.40;;
1174;SDS011;576;48.418;10.074;2023-02-28T00:18:49;1.07;;;1.00;;
1174;SDS011;576;48.418;10.074;2023-02-28T00:21:18;1.83;;;1.10;;
1174;SDS011;576;48.418;10.074;2023-02-28T00:23:47;1.33;;;1.13;;
1174;SDS011;576;48.418;10.074;2023-02-28T00:26:15;1.30;;;1.20;;
1174;SDS011;576;48.418;10.074;2023-02-28T00:28:46;1.03;;;1.03;;
1174;SDS011;576;48.418;10.074;2023-02-28T00:31:16;1.33;;;1.23;;
1174;SDS011;576;48.418;10.074;2023-02-28T00:33:47;3.20;;;1.43;;
1174;SDS011;576;48.418;10.074;2023-02-28T00:36:15;1.40;;;1.30;;
1174;SDS011;576;48.418;10.074;2023-02-28T00:38:43;2.13;;;1.50;;
1174;SDS011;576;48.418;10.074;2023-02-28T00:41:11;1.60;;;1.50;;
1174;SDS011;576;48.418;10.074;2023-02-28T00:43:39;1.73;;;1.33;;
1174;SDS011;576;48.418;10.074;2023-02-28T00:46:09;1.50;;;1.40;;
1174;SDS011;576;48.418;10.074;2023-02-28T00:48:39;1.47;;;1.37;;
1174;SDS011;576;48.418;10.074;2023-02-28T00:51:07;1.50;;;1.40;;
1174;SDS011;576;48.418;10.074;2023-02-28T00:53:35;1.23;;;1.10;;
1174;SDS011;576;48.418;10.074;2023-02-28T00:56:04;1.73;;;1.63;;
1174;SDS011;576;48.418;10.074;2023-02-28T00:58:32;1.70;;;1.40;;
1174;SDS011;576;48.418;10.074;2023-02-28T01:01:00;1.50;;;1.40;;
1174;SDS011;576;48.418;10.074;2023-02-28T01:03:29;1.60;;;1.50;;
1174;SDS011;576;48.418;10.074;2023-02-28T01:05:59;2.80;;;1.60;;
1174;SDS011;576;48.418;10.074;2023-02-28T01:08:27;2.67;;;1.60;;
1174;SDS011;576;48.418;10.074;2023-02-28T01:10:55;1.63;;;1.53;;
1174;SDS011;576;48.418;10.074;2023-02-28T01:13:24;1.43;;;1.33;;
1174;SDS011;576;48.418;10.074;2023-02-28T01:15:53;1.70;;;1.60;;
1174;SDS011;576;48.418;10.074;2023-02-28T01:18:23;1.67;;;1.57;;
1174;SDS011;576;48.418;10.074;2023-02-28T01:20:51;2.73;;;1.53;;
1174;SDS011;576;48.418;10.074;2023-02-28T01:23:21;1.30;;;1.20;;
1174;SDS011;576;48.418;10.074;2023-02-28T01:25:50;1.10;;;1.10;;
1174;SDS011;576;48.418;10.074;2023-02-28T01:28:18;2.20;;;1.70;;
1174;SDS011;576;48.418;10.074;2023-02-28T01:30:47;1.50;;;1.40;;
1174;SDS011;576;48.418;10.074;2023-02-28T01:33:16;1.13;;;1.13;;
1174;SDS011;576;48.418;10.074;2023-02-28T01:35:44;1.50;;;1.40;;
1174;SDS011;576;48.418;10.074;2023-02-28T01:38:12;1.40;;;1.30;;
1174;SDS011;576;48.418;10.074;2023-02-28T01:40:49;2.00;;;1.80;;
1174;SDS011;576;48.418;10.074;2023-02-28T01:43:24;2.00;;;1.47;;
1174;SDS011;576;48.418;10.074;2023-02-28T01:45:54;1.40;;;1.30;;
1174;SDS011;576;48.418;10.074;2023-02-28T01:48:24;1.20;;;1.20;;
1174;SDS011;576;48.418;10.074;2023-02-28T01:50:55;1.60;;;1.40;;
1174;SDS011;576;48.418;10.074;2023-02-28T01:53:28;1.57;;;1.43;;
1174;SDS011;576;48.418;10.074;2023-02-28T01:56:00;1.63;;;1.53;;
1174;SDS011;576;48.418;10.074;2023-02-28T01:58:34;1.40;;;1.33;;
1174;SDS011;576;48.418;10.074;2023-02-28T02:01:02;1.53;;;1.43;;
1174;SDS011;576;48.418;10.074;2023-02-28T02:03:32;1.40;;;1.30;;
1174;SDS011;576;48.418;10.074;2023-02-28T02:06:02;1.63;;;1.50;;
1174;SDS011;576;48.418;10.074;2023-02-28T02:08:31;1.60;;;1.50;;
1174;SDS011;576;48.418;10.074;2023-02-28T02:11:01;1.70;;;1.60;;
1174;SDS011;576;48.418;10.074;2023-02-28T02:13:33;1.70;;;1.60;;
1174;SDS011;576;48.418;10.074;2023-02-28T02:16:28;1.30;;;1.20;;
1174;SDS011;576;48.418;10.074;2023-02-28T02:19:09;1.13;;;1.13;;
1174;SDS011;576;48.418;10.074;2023-02-28T02:22:01;1.80;;;1.70;;
1174;SDS011;576;48.418;10.074;2023-02-28T02:24:58;1.13;;;1.10;;
1174;SDS011;576;48.418;10.074;2023-02-28T02:27:50;1.50;;;1.13;;
1174;SDS011;576;48.418;10.074;2023-02-28T02:30:35;1.93;;;1.50;;
1174;SDS011;576;48.418;10.074;2023-02-28T02:36:23;1.37;;;1.27;;
1174;SDS011;576;48.418;10.074;2023-02-28T02:38:55;1.60;;;1.50;;
1174;SDS011;576;48.418;10.074;2023-02-28T02:41:31;1.27;;;1.17;;
1174;SDS011;576;48.418;10.074;2023-02-28T02:44:05;1.57;;;1.40;;
1174;SDS011;576;48.418;10.074;2023-02-28T02:46:39;1.30;;;1.20;;
1174;SDS011;576;48.418;10.074;2023-02-28T02:49:13;1.87;;;1.47;;
1174;SDS011;576;48.418;10.074;2023-02-28T02:51:48;1.60;;;1.50;;
1174;SDS011;576;48.418;10.074;2023-02-28T02:54:19;1.50;;;1.33;;
1174;SDS011;576;48.418;10.074;2023-02-28T02:56:55;1.73;;;1.63;;
1174;SDS011;576;48.418;10.074;2023-02-28T02:59:27;1.30;;;1.20;;
1174;SDS011;576;48.418;10.074;2023-02-28T03:01:57;2.70;;;1.63;;
1174;SDS011;576;48.418;10.074;2023-02-28T03:04:30;4.03;;;1.50;;
1174;SDS011;576;48.418;10.074;2023-02-28T03:07:04;2.00;;;1.50;;
1174;SDS011;576;48.418;10.074;2023-02-28T03:09:33;1.10;;;1.10;;
1174;SDS011;576;48.418;10.074;2023-02-28T03:12:02;1.50;;;1.40;;
1174;SDS011;576;48.418;10.074;2023-02-28T03:14:41;1.30;;;1.20;;
1174;SDS011;576;48.418;10.074;2023-02-28T03:17:19;1.80;;;1.23;;
1174;SDS011;576;48.418;10.074;2023-02-28T03:19:58;2.20;;;1.40;;
1174;SDS011;576;48.418;10.074;2023-02-28T03:22:44;1.60;;;1.50;;
1174;SDS011;576;48.418;10.074;2023-02-28T03:25:26;2.27;;;1.20;;
1174;SDS011;576;48.418;10.074;2023-02-28T03:28:00;1.30;;;1.20;;
1174;SDS011;576;48.418;10.074;2023-02-28T03:30:35;1.70;;;1.60;;
1174;SDS011;576;48.418;10.074;2023-02-28T03:33:10;1.77;;;1.67;;
1174;SDS011;576;48.418;10.074;2023-02-28T03:35:42;1.50;;;1.40;;
1174;SDS011;576;48.418;10.074;2023-02-28T03:38:17;1.33;;;1.23;;
1174;SDS011;576;48.418;10.074;2023-02-28T03:40:48;1.60;;;1.50;;
1174;SDS011;576;48.418;10.074;2023-02-28T03:43:20;1.63;;;1.53;;
1174;SDS011;576;48.418;10.074;2023-02-28T03:45:52;1.27;;;1.17;;
1174;SDS011;576;48.418;10.074;2023-02-28T03:48:24;1.33;;;1.23;;
1174;SDS011;576;48.418;10.074;2023-02-28T03:50:58;1.50;;;1.20;;
1174;SDS011;576;48.418;10.074;2023-02-28T03:53:30;1.63;;;1.53;;
1174;SDS011;576;48.418;10.074;2023-02-28T03:56:03;1.60;;;1.50;;
1174;SDS011;576;48.418;10.074;2023-02-28T03:58:39;1.67;;;1.57;;
1174;SDS011;576;48.418;10.074;2023-02-28T04:01:12;2.87;;;1.67;;
1174;SDS011;576;48.418;10.074;2023-02-28T04:03:45;1.77;;;1.67;;
1174;SDS011;576;48.418;10.074;2023-02-28T04:06:15;1.70;;;1.60;;
1174;SDS011;576;48.418;10.074;2023-02-28T04:08:46;1.83;;;1.70;;
1174;SDS011;576;48.418;10.074;2023-02-28T04:11:17;2.00;;;1.80;;
1174;SDS011;576;48.418;10.074;2023-02-28T04:13:49;1.80;;;1.70;;
1174;SDS011;576;48.418;10.074;2023-02-28T04:16:18;1.73;;;1.53;;
1174;SDS011;576;48.418;10.074;2023-02-28T04:18:59;1.80;;;1.70;;
1174;SDS011;576;48.418;10.074;2023-02-28T04:21:30;1.77;;;1.67;;
1174;SDS011;576;48.418;10.074;2023-02-28T04:24:00;1.53;;;1.43;;
1174;SDS011;576;48.418;10.074;2023-02-28T04:26:29;1.43;;;1.33;;
1174;SDS011;576;48.418;10.074;2023-02-28T04:28:58;1.90;;;1.40;;
1174;SDS011;576;48.418;10.074;2023-02-28T04:31:26;1.27;;;1.17;;
1174;SDS011;576;48.418;10.074;2023-02-28T04:33:55;1.30;;;1.30;;
1174;SDS011;576;48.418;10.074;2023-02-28T04:36:23;1.57;;;1.47;;
1174;SDS011;576;48.418;10.074;2023-02-28T04:38:52;1.60;;;1.50;;
1174;SDS011;576;48.418;10.074;2023-02-28T04:41:22;1.53;;;1.30;;
1174;SDS011;576;48.418;10.074;2023-02-28T04:43:50;1.57;;;1.47;;
1174;SDS011;576;48.418;10.074;2023-02-28T04:46:18;1.50;;;1.40;;
1174;SDS011;576;48.418;10.074;2023-02-28T04:48:47;1.80;;;1.70;;
1174;SDS011;576;48.418;10.074;2023-02-28T04:51:16;1.73;;;1.50;;
1174;SDS011;576;48.418;10.074;2023-02-28T04:53:46;1.60;;;1.50;;
1174;SDS011;576;48.418;10.074;2023-02-28T04:56:15;1.50;;;1.40;;
1174;SDS011;576;48.418;10.074;2023-02-28T04:58:46;1.80;;;1.70;;
1174;SDS011;576;48.418;10.074;2023-02-28T05:01:16;1.53;;;1.43;;
1174;SDS011;576;48.418;10.074;2023-02-28T05:03:47;1.83;;;1.73;;
1174;SDS011;576;48.418;10.074;2023-02-28T05:06:15;1.70;;;1.60;;
1174;SDS011;576;48.418;10.074;2023-02-28T05:08:44;2.13;;;2.03;;
1174;SDS011;576;48.418;10.074;2023-02-28T05:11:13;1.70;;;1.60;;
1174;SDS011;576;48.418;10.074;2023-02-28T05:13:48;2.43;;;1.80;;
1174;SDS011;576;48.418;10.074;2023-02-28T05:16:17;1.40;;;1.30;;
1174;SDS011;576;48.418;10.074;2023-02-28T05:18:46;1.83;;;1.67;;
1174;SDS011;576;48.418;10.074;2023-02-28T05:21:22;2.20;;;1.93;;
1174;SDS011;576;48.418;10.074;2023-02-28T05:23:53;2.87;;;1.80;;
1174;SDS011;576;48.418;10.074;2023-02-28T05:26:22;1.70;;;1.60;;
1174;SDS011;576;48.418;10.074;2023-02-28T05:28:52;1.70;;;1.60;;
1174;SDS011;576;48.418;10.074;2023-02-28T05:31:21;1.60;;;1.50;;
1174;SDS011;576;48.418;10.074;2023-02-28T05:33:50;1.47;;;1.30;;
1174;SDS011;576;48.418;10.074;2023-02-28T05:36:18;1.50;;;1.40;;
1174;SDS011;576;48.418;10.074;2023-02-28T05:38:47;3.20;;;1.60;;
1174;SDS011;576;48.418;10.074;2023-02-28T05:41:15;2.20;;;1.60;;
1174;SDS011;576;48.418;10.074;2023-02-28T05:43:45;1.70;;;1.60;;
1174;SDS011;576;48.418;10.074;2023-02-28T05:46:15;3.40;;;1.90;;
1174;SDS011;576;48.418;10.074;2023-02-28T05:48:45;2.27;;;1.90;;
1174;SDS011;576;48.418;10.074;2023-02-28T05:51:15;2.10;;;2.00;;
1174;SDS011;576;48.418;10.074;2023-02-28T05:53:43;2.67;;;2.20;;
1174;SDS011;576;48.418;10.074;2023-02-28T05:56:12;1.57;;;1.40;;
1174;SDS011;576;48.418;10.074;2023-02-28T05:58:40;4.30;;;1.87;;
1174;SDS011;576;48.418;10.074;2023-02-28T06:01:23;2.03;;;1.93;;
1174;SDS011;576;48.418;10.074;2023-02-28T06:04:02;4.63;;;1.63;;
1174;SDS011;576;48.418;10.074;2023-02-28T06:06:32;2.27;;;2.00;;
1174;SDS011;576;48.418;10.074;2023-02-28T06:09:02;6.23;;;1.80;;
1174;SDS011;576;48.418;10.074;2023-02-28T06:11:31;2.00;;;1.80;;
1174;SDS011;576;48.418;10.074;2023-02-28T06:14:00;1.80;;;1.70;;
1174;SDS011;576;48.418;10.074;2023-02-28T06:16:30;3.43;;;1.80;;
1174;SDS011;576;48.418;10.074;2023-02-28T06:19:01;2.90;;;2.60;;
1174;SDS011;576;48.418;10.074;2023-02-28T06:21:30;3.03;;;1.70;;
1174;SDS011;576;48.418;10.074;2023-02-28T06:23:58;2.20;;;1.77;;
1174;SDS011;576;48.418;10.074;2023-02-28T06:26:27;1.50;;;1.40;;
1174;SDS011;576;48.418;10.074;2023-02-28T06:28:55;3.40;;;2.10;;
1174;SDS011;576;48.418;10.074;2023-02-28T06:31:23;1.70;;;1.60;;
1174;SDS011;576;48.418;10.074;2023-02-28T06:33:54;1.70;;;1.60;;
1174;SDS011;576;48.418;10.074;2023-02-28T06:36:22;5.33;;;1.70;;
1174;SDS011;576;48.418;10.074;2023-02-28T06:38:50;3.33;;;1.77;;
1174;SDS011;576;48.418;10.074;2023-02-28T06:41:21;2.57;;;1.70;;
1174;SDS011;576;48.418;10.074;2023-02-28T06:43:50;2.47;;;1.50;;
1174;SDS011;576;48.418;10.074;2023-02-28T06:46:19;1.70;;;1.60;;
1174;SDS011;576;48.418;10.074;2023-02-28T06:48:47;2.50;;;1.97;;
1174;SDS011;576;48.418;10.074;2023-02-28T06:51:18;4.40;;;2.13;;
1174;SDS011;576;48.418;10.074;2023-02-28T06:53:48;3.70;;;1.83;;
1174;SDS011;576;48.418;10.074;2023-02-28T06:56:17;2.10;;;1.90;;
1174;SDS011;576;48.418;10.074;2023-02-28T06:58:46;3.80;;;1.93;;
1174;SDS011;576;48.418;10.074;2023-02-28T07:01:15;3.37;;;2.03;;
1174;SDS011;576;48.418;10.074;2023-02-28T07:03:44;2.50;;;2.10;;
1174;SDS011;576;48.418;10.074;2023-02-28T07:06:12;2.83;;;1.93;;
1174;SDS011;576;48.418;10.074;2023-02-28T07:08:45;2.60;;;1.63;;
1174;SDS011;576;48.418;10.074;2023-02-28T07:11:13;2.33;;;2.13;;
1174;SDS011;576;48.418;10.074;2023-02-28T07:13:41;6.23;;;2.37;;
1174;SDS011;576;48.418;10.074;2023-02-28T07:16:10;5.90;;;2.63;;
1174;SDS011;576;48.418;10.074;2023-02-28T07:18:39;1.90;;;1.80;;
1174;SDS011;576;48.418;10.074;2023-02-28T07:21:08;7.47;;;2.50;;
1174;SDS011;576;48.418;10.074;2023-02-28T07:23:37;5.57;;;2.73;;
1174;SDS011;576;48.418;10.074;2023-02-28T07:26:07;9.30;;;3.47;;
1174;SDS011;576;48.418;10.074;2023-02-28T07:28:39;3.50;;;2.33;;
1174;SDS011;576;48.418;10.074;2023-02-28T07:31:09;4.83;;;2.50;;
1174;SDS011;576;48.418;10.074;2023-02-28T07:33:38;5.33;;;4.10;;
1174;SDS011;576;48.418;10.074;2023-02-28T07:36:07;6.30;;;3.10;;
1174;SDS011;576;48.418;10.074;2023-02-28T07:38:41;5.17;;;3.00;;
1174;SDS011;576;48.418;10.074;2023-02-28T07:41:14;5.73;;;3.50;;
1174;SDS011;576;48.418;10.074;2023-02-28T07:43:43;10.27;;;3.10;;
1174;SDS011;576;48.418;10.074;2023-02-28T07:46:12;5.20;;;2.73;;
1174;SDS011;576;48.418;10.074;2023-02-28T07:48:42;4.30;;;2.83;;
1174;SDS011;576;48.418;10.074;2023-02-28T07:51:11;5.07;;;2.97;;
1174;SDS011;576;48.418;10.074;2023-02-28T07:53:40;2.50;;;2.30;;
1174;SDS011;576;48.418;10.074;2023-02-28T07:56:08;4.20;;;3.20;;
1174;SDS011;576;48.418;10.074;2023-02-28T07:58:38;2.70;;;2.50;;
1174;SDS011;576;48.418;10.074;2023-02-28T08:01:06;3.97;;;2.10;;
1174;SDS011;576;48.418;10.074;2023-02-28T08:03:35;3.93;;;2.10;;
1174;SDS011;576;48.418;10.074;2023-02-28T08:06:05;3.30;;;2.60;;
1174;SDS011;576;48.418;10.074;2023-02-28T08:08:35;2.10;;;1.90;;
1174;SDS011;576;48.418;10.074;2023-02-28T08:11:03;3.80;;;2.50;;
1174;SDS011;576;48.418;10.074;2023-02-28T08:13:31;5.00;;;2.90;;
1174;SDS011;576;48.418;10.074;2023-02-28T08:16:02;3.77;;;2.83;;
1174;SDS011;576;48.418;10.074;2023-02-28T08:18:30;3.87;;;2.63;;
1174;SDS011;576;48.418;10.074;2023-02-28T08:21:04;4.07;;;2.70;;
1174;SDS011;576;48.418;10.074;2023-02-28T08:23:33;3.20;;;2.40;;
1174;SDS011;576;48.418;10.074;2023-02-28T08:26:02;3.00;;;2.80;;
1174;SDS011;576;48.418;10.074;2023-02-28T08:28:30;3.33;;;2.10;;
1174;SDS011;576;48.418;10.074;2023-02-28T08:30:59;3.47;;;2.80;;
1174;SDS011;576;48.418;10.074;2023-02-28T08:33:34;2.90;;;2.43;;
1174;SDS011;576;48.418;10.074;2023-02-28T08:36:03;4.73;;;2.57;;
1174;SDS011;576;48.418;10.074;2023-02-28T08:38:31;3.30;;;3.00;;
1174;SDS011;576;48.418;10.074;2023-02-28T08:40:59;2.80;;;2.43;;
1174;SDS011;576;48.418;10.074;2023-02-28T08:43:29;3.50;;;3.20;;
1174;SDS011;576;48.418;10.074;2023-02-28T08:45:57;3.10;;;2.90;;
1174;SDS011;576;48.418;10.074;2023-02-28T08:48:27;6.67;;;2.97;;
1174;SDS011;576;48.418;10.074;2023-02-28T08:50:57;3.30;;;2.63;;
1174;SDS011;576;48.418;10.074;2023-02-28T08:53:33;3.17;;;2.83;;
1174;SDS011;576;48.418;10.074;2023-02-28T08:56:02;2.70;;;2.00;;
1174;SDS011;576;48.418;10.074;2023-02-28T08:58:32;2.77;;;2.57;;
1174;SDS011;576;48.418;10.074;2023-02-28T09:01:06;3.10;;;2.47;;
1174;SDS011;576;48.418;10.074;2023-02-28T09:03:37;3.20;;;2.90;;
1174;SDS011;576;48.418;10.074;2023-02-28T09:06:06;2.57;;;2.03;;
1174;SDS011;576;48.418;10.074;2023-02-28T09:08:34;3.20;;;2.80;;
1174;SDS011;576;48.418;10.074;2023-02-28T09:11:03;2.80;;;2.57;;
1174;SDS011;576;48.418;10.074;2023-02-28T09:13:31;3.13;;;2.40;;
1174;SDS011;576;48.418;10.074;2023-02-28T09:16:00;2.67;;;2.47;;
1174;SDS011;576;48.418;10.074;2023-02-28T09:18:30;2.50;;;2.30;;
1174;SDS011;576;48.418;10.074;2023-02-28T09:21:02;3.80;;;2.60;;
1174;SDS011;576;48.418;10.074;2023-02-28T09:23:31;2.87;;;2.67;;
1174;SDS011;576;48.418;10.074;2023-02-28T09:25:59;3.10;;;2.90;;
1174;SDS011;576;48.418;10.074;2023-02-28T09:28:27;3.00;;;2.47;;
1174;SDS011;576;48.418;10.074;2023-02-28T09:30:55;2.90;;;2.70;;
1174;SDS011;576;48.418;10.074;2023-02-28T09:33:25;3.50;;;2.77;;
1174;SDS011;576;48.418;10.074;2023-02-28T09:35:57;3.00;;;2.77;;
1174;SDS011;576;48.418;10.074;2023-02-28T09:38:28;3.83;;;2.70;;
1174;SDS011;576;48.418;10.074;2023-02-28T09:40:57;3.17;;;2.40;;
1174;SDS011;576;48.418;10.074;2023-02-28T09:43:27;4.13;;;2.70;;
1174;SDS011;576;48.418;10.074;2023-02-28T09:46:00;2.13;;;1.93;;
1174;SDS011;576;48.418;10.074;2023-02-28T09:48:39;2.93;;;2.67;;
1174;SDS011;576;48.418;10.074;2023-02-28T09:51:14;3.60;;;3.00;;
1174;SDS011;576;48.418;10.074;2023-02-28T09:53:54;2.77;;;2.50;;
1174;SDS011;576;48.418;10.074;2023-02-28T09:56:28;3.43;;;3.03;;
1174;SDS011;576;48.418;10.074;2023-02-28T09:59:01;3.33;;;3.03;;
1174;SDS011;576;48.418;10.074;2023-02-28T10:01:34;2.73;;;2.53;;
1174;SDS011;576;48.418;10.074;2023-02-28T10:04:11;2.37;;;2.20;;
1174;SDS011;576;48.418;10.074;2023-02-28T10:06:46;3.33;;;3.13;;
1174;SDS011;576;48.418;10.074;2023-02-28T10:09:17;2.73;;;2.53;;
1174;SDS011;576;48.418;10.074;2023-02-28T10:11:49;3.30;;;3.00;;
1174;SDS011;576;48.418;10.074;2023-02-28T10:14:23;3.40;;;2.60;;
1174;SDS011;576;48.418;10.074;2023-02-28T10:16:54;2.90;;;2.70;;
1174;SDS011;576;48.418;10.074;2023-02-28T10:19:25;4.90;;;3.73;;
1174;SDS011;576;48.418;10.074;2023-02-28T10:22:00;2.90;;;2.70;;
1174;SDS011;576;48.418;10.074;2023-02-28T10:24:32;3.10;;;2.57;;
1174;SDS011;576;48.418;10.074;2023-02-28T10:27:06;2.90;;;2.70;;
1174;SDS011;576;48.418;10.074;2023-02-28T10:29:42;2.53;;;2.30;;
1174;SDS011;576;48.418;10.074;2023-02-28T10:32:12;3.17;;;2.97;;
1174;SDS011;576;48.418;10.074;2023-02-28T10:34:44;2.73;;;2.53;;
1174;SDS011;576;48.418;10.074;2023-02-28T10:37:15;3.23;;;2.60;;
1174;SDS011;576;48.418;10.074;2023-02-28T10:39:44;3.00;;;2.80;;
1174;SDS011;576;48.418;10.074;2023-02-28T10:42:21;3.20;;;2.90;;
1174;SDS011;576;48.418;10.074;2023-02-28T10:45:04;2.67;;;2.50;;
1174;SDS011;576;48.418;10.074;2023-02-28T10:47:38;2.40;;;2.30;;
1174;SDS011;576;48.418;10.074;2023-02-28T10:50:30;2.53;;;2.33;;
1174;SDS011;576;48.418;10.074;2023-02-28T10:56:14;3.03;;;2.80;;
1174;SDS011;576;48.418;10.074;2023-02-28T10:58:48;3.43;;;3.07;;
1174;SDS011;576;48.418;10.074;2023-02-28T11:01:23;3.20;;;3.00;;
1174;SDS011;576;48.418;10.074;2023-02-28T11:08:03;2.73;;;2.50;;
1174;SDS011;576;48.418;10.074;2023-02-28T11:10:35;4.23;;;3.20;;
1174;SDS011;576;48.418;10.074;2023-02-28T11:13:04;2.93;;;2.40;;
1174;SDS011;576;48.418;10.074;2023-02-28T11:15:33;2.97;;;2.77;;
1174;SDS011;576;48.418;10.074;2023-02-28T11:18:02;3.00;;;2.80;;
1174;SDS011;576;48.418;10.074;2023-02-28T11:20:47;2.87;;;2.67;;
1174;SDS011;576;48.418;10.074;2023-02-28T11:23:18;4.00;;;2.87;;
1174;SDS011;576;48.418;10.074;2023-02-28T11:25:49;2.97;;;2.77;;
1174;SDS011;576;48.418;10.074;2023-02-28T11:28:25;2.77;;;2.57;;
1174;SDS011;576;48.418;10.074;2023-02-28T11:31:02;3.00;;;2.80;;
1174;SDS011;576;48.418;10.074;2023-02-28T11:33:40;2.90;;;2.70;;
1174;SDS011;576;48.418;10.074;2023-02-28T11:36:12;2.30;;;2.20;;
1174;SDS011;576;48.418;10.074;2023-02-28T11:38:42;3.17;;;2.87;;
1174;SDS011;576;48.418;10.074;2023-02-28T11:41:16;2.73;;;2.53;;
1174;SDS011;576;48.418;10.074;2023-02-28T11:44:01;3.53;;;3.20;;
1174;SDS011;576;48.418;10.074;2023-02-28T11:46:47;3.73;;;3.43;;
1174;SDS011;576;48.418;10.074;2023-02-28T11:49:25;2.50;;;2.30;;
1174;SDS011;576;48.418;10.074;2023-02-28T11:52:02;2.40;;;2.30;;
1174;SDS011;576;48.418;10.074;2023-02-28T11:57:38;3.53;;;3.10;;
1174;SDS011;576;48.418;10.074;2023-02-28T12:00:29;2.33;;;2.13;;
1174;SDS011;576;48.418;10.074;2023-02-28T12:03:09;3.10;;;2.60;;
1174;SDS011;576;48.418;10.074;2023-02-28T12:05:49;2.53;;;2.37;;
1174;SDS011;576;48.418;10.074;2023-02-28T12:08:26;3.13;;;2.93;;
1174;SDS011;576;48.418;10.074;2023-02-28T12:11:06;2.90;;;2.70;;
1174;SDS011;576;48.418;10.074;2023-02-28T12:13:46;3.30;;;3.00;;
1174;SDS011;576;48.418;10.074;2023-02-28T12:16:32;2.83;;;2.37;;
1174;SDS011;576;48.418;10.074;2023-02-28T12:19:17;3.03;;;2.83;;
1174;SDS011;576;48.418;10.074;2023-02-28T12:21:52;3.00;;;2.80;;
1174;SDS011;576;48.418;10.074;2023-02-28T12:24:39;2.60;;;2.40;;
1174;SDS011;576;48.418;10.074;2023-02-28T12:27:20;2.90;;;2.70;;
1174;SDS011;576;48.418;10.074;2023-02-28T12:29:55;3.50;;;3.20;;
1174;SDS011;576;48.418;10.074;2023-02-28T12:32:26;3.00;;;2.80;;
1174;SDS011;576;48.418;10.074;2023-02-28T12:35:01;3.40;;;3.10;;
1174;SDS011;576;48.418;10.074;2023-02-28T12:37:36;3.20;;;3.00;;
1174;SDS011;576;48.418;10.074;2023-02-28T12:40:11;2.83;;;2.63;;
1174;SDS011;576;48.418;10.074;2023-02-28T12:42:43;3.00;;;2.70;;
1174;SDS011;576;48.418;10.074;2023-02-28T12:45:17;4.60;;;2.77;;
1174;SDS011;576;48.418;10.074;2023-02-28T12:47:48;6.50;;;3.30;;
1174;SDS011;576;48.418;10.074;2023-02-28T12:50:22;3.43;;;3.00;;
1174;SDS011;576;48.418;10.074;2023-02-28T12:52:53;3.90;;;3.30;;
1174;SDS011;576;48.418;10.074;2023-02-28T12:55:28;3.93;;;3.63;;
1174;SDS011;576;48.418;10.074;2023-02-28T12:58:02;3.80;;;3.07;;
1174;SDS011;576;48.418;10.074;2023-02-28T13:00:42;4.30;;;3.93;;
1174;SDS011;576;48.418;10.074;2023-02-28T13:03:27;3.57;;;3.27;;
1174;SDS011;576;48.418;10.074;2023-02-28T13:06:21;5.10;;;3.10;;
1174;SDS011;576;48.418;10.074;2023-02-28T13:09:09;4.43;;;3.60;;
1174;SDS011;576;48.418;10.074;2023-02-28T13:11:43;6.10;;;3.53;;
1174;SDS011;576;48.418;10.074;2023-02-28T13:14:18;3.87;;;3.30;;
1174;SDS011;576;48.418;10.074;2023-02-28T13:17:01;4.40;;;3.23;;
1174;SDS011;576;48.418;10.074;2023-02-28T13:19:38;4.83;;;3.80;;
1174;SDS011;576;48.418;10.074;2023-02-28T13:22:15;3.17;;;2.97;;
1174;SDS011;576;48.418;10.074;2023-02-28T13:24:47;3.60;;;3.30;;
1174;SDS011;576;48.418;10.074;2023-02-28T13:27:32;5.83;;;3.93;;
1174;SDS011;576;48.418;10.074;2023-02-28T13:33:24;6.30;;;4.03;;
1174;SDS011;576;48.418;10.074;2023-02-28T13:36:05;3.83;;;3.10;;
1174;SDS011;576;48.418;10.074;2023-02-28T13:38:37;3.87;;;3.17;;
1174;SDS011;576;48.418;10.074;2023-02-28T13:44:14;3.37;;;3.17;;
1174;SDS011;576;48.418;10.074;2023-02-28T13:49:50;3.40;;;3.10;;
1174;SDS011;576;48.418;10.074;2023-02-28T13:52:20;3.30;;;3.00;;
1174;SDS011;576;48.418;10.074;2023-02-28T13:54:59;4.50;;;3.10;;
1174;SDS011;576;48.418;10.074;2023-02-28T13:57:56;3.20;;;2.90;;
1174;SDS011;576;48.418;10.074;2023-02-28T14:00:55;4.73;;;3.33;;
1174;SDS011;576;48.418;10.074;2023-02-28T14:03:48;7.07;;;4.37;;
1174;SDS011;576;48.418;10.074;2023-02-28T14:06:31;3.53;;;3.00;;
1174;SDS011;576;48.418;10.074;2023-02-28T14:09:01;3.27;;;2.87;;
1174;SDS011;576;48.418;10.074;2023-02-28T14:11:35;3.40;;;3.07;;
1174;SDS011;576;48.418;10.074;2023-02-28T14:14:05;4.03;;;3.53;;
1174;SDS011;576;48.418;10.074;2023-02-28T14:16:37;3.17;;;2.73;;
1174;SDS011;576;48.418;10.074;2023-02-28T14:19:12;3.23;;;2.93;;
1174;SDS011;576;48.418;10.074;2023-02-28T14:21:46;3.50;;;3.00;;
1174;SDS011;576;48.418;10.074;2023-02-28T14:24:46;3.20;;;2.87;;
1174;SDS011;576;48.418;10.074;2023-02-28T14:27:30;2.80;;;2.60;;
1174;SDS011;576;48.418;10.074;2023-02-28T14:33:20;4.23;;;3.37;;
1174;SDS011;576;48.418;10.074;2023-02-28T14:35:56;3.00;;;2.80;;
1174;SDS011;576;48.418;10.074;2023-02-28T14:38:32;3.30;;;3.00;;
1174;SDS011;576;48.418;10.074;2023-02-28T14:41:06;5.77;;;3.10;;
1174;SDS011;576;48.418;10.074;2023-02-28T14:43:50;6.60;;;2.87;;
1174;SDS011;576;48.418;10.074;2023-02-28T14:46:20;3.50;;;3.20;;
1174;SDS011;576;48.418;10.074;2023-02-28T14:48:50;2.83;;;2.63;;
1174;SDS011;576;48.418;10.074;2023-02-28T14:51:19;3.30;;;3.10;;
1174;SDS011;576;48.418;10.074;2023-02-28T14:54:00;2.97;;;2.77;;
1174;SDS011;576;48.418;10.074;2023-02-28T14:56:30;2.87;;;2.67;;
1174;SDS011;576;48.418;10.074;2023-02-28T14:59:02;7.33;;;2.53;;
1174;SDS011;576;48.418;10.074;2023-02-28T15:01:31;4.00;;;3.20;;
1174;SDS011;576;48.418;10.074;2023-02-28T15:04:01;4.10;;;2.30;;
1174;SDS011;576;48.418;10.074;2023-02-28T15:06:31;4.73;;;2.40;;
1174;SDS011;576;48.418;10.074;2023-02-28T15:09:15;3.03;;;2.60;;
1174;SDS011;576;48.418;10.074;2023-02-28T15:11:46;2.93;;;2.73;;
1174;SDS011;576;48.418;10.074;2023-02-28T15:14:18;3.30;;;3.00;;
1174;SDS011;576;48.418;10.074;2023-02-28T15:16:50;3.33;;;3.03;;
1174;SDS011;576;48.418;10.074;2023-02-28T15:19:23;3.13;;;2.93;;
1174;SDS011;576;48.418;10.074;2023-02-28T15:21:55;2.90;;;2.60;;
1174;SDS011;576;48.418;10.074;2023-02-28T15:24:30;2.63;;;2.43;;
1174;SDS011;576;48.418;10.074;2023-02-28T15:27:04;2.33;;;2.23;;
1174;SDS011;576;48.418;10.074;2023-02-28T15:29:37;2.90;;;2.70;;
1174;SDS011;576;48.418;10.074;2023-02-28T15:32:20;4.80;;;3.03;;
1174;SDS011;576;48.418;10.074;2023-02-28T15:34:52;2.87;;;2.67;;
1174;SDS011;576;48.418;10.074;2023-02-28T15:37:27;2.90;;;2.60;;
1174;SDS011;576;48.418;10.074;2023-02-28T15:40:10;12.30;;;9.13;;
1174;SDS011;576;48.418;10.074;2023-02-28T15:42:42;15.00;;;9.67;;
1174;SDS011;576;48.418;10.074;2023-02-28T15:45:28;25.67;;;16.83;;
1174;SDS011;576;48.418;10.074;2023-02-28T15:48:04;50.13;;;31.70;;
1174;SDS011;576;48.418;10.074;2023-02-28T15:50:40;33.53;;;22.87;;
1174;SDS011;576;48.418;10.074;2023-02-28T15:53:12;30.33;;;20.07;;
1174;SDS011;576;48.418;10.074;2023-02-28T15:55:43;27.93;;;19.23;;
1174;SDS011;576;48.418;10.074;2023-02-28T15:58:12;30.00;;;16.50;;
1174;SDS011;576;48.418;10.074;2023-02-28T16:00:43;20.07;;;13.10;;
1174;SDS011;576;48.418;10.074;2023-02-28T16:03:33;17.70;;;9.97;;
1174;SDS011;576;48.418;10.074;2023-02-28T16:09:02;13.93;;;8.70;;
1174;SDS011;576;48.418;10.074;2023-02-28T16:11:33;10.43;;;7.37;;
1174;SDS011;576;48.418;10.074;2023-02-28T16:14:05;8.10;;;6.40;;
1174;SDS011;576;48.418;10.074;2023-02-28T16:16:33;9.03;;;6.50;;
1174;SDS011;576;48.418;10.074;2023-02-28T16:19:01;6.90;;;6.10;;